Time,TemperatureF,DewpointF,PressureIn,WindDirection,WindDirectionDegrees,WindSpeedMPH,WindSpeedGustMPH,Humidity,HourlyPrecipIn,Conditions,Clouds,dailyrainin,SoftwareType,DateUTC
2013-07-12 00:01:00,77.6,74.8,29.84,East,99,0.0,0.0,91,0.00,,,0.00,WUHU216DAVISVP2,2013-07-12 04:01:00,
2013-07-12 00:06:00,77.6,74.8,29.84,East,99,0.0,0.0,91,0.00,,,0.00,WUHU216DAVISVP2,2013-07-12 04:06:00,
2013-07-12 00:11:00,77.2,74.4,29.84,East,99,0.0,0.0,91,0.00,,,0.00,WUHU216DAVISVP2,2013-07-12 04:11:00,
2013-07-12 00:16:00,77.2,74.4,29.85,East,99,0.0,0.0,91,0.00,,,0.00,WUHU216DAVISVP2,2013-07-12 04:16:00,
2013-07-12 00:21:00,77.2,74.4,29.85,East,99,0.0,0.0,91,0.00,,,0.00,WUHU216DAVISVP2,2013-07-12 04:21:00,
2013-07-12 00:26:00,77.0,74.2,29.85,East,99,0.0,0.0,91,0.00,,,0.00,WUHU216DAVISVP2,2013-07-12 04:26:00,
2013-07-12 00:31:00,77.4,74.9,29.86,East,99,0.0,0.0,92,0.00,,,0.00,WUHU216DAVISVP2,2013-07-12 04:31:00,
2013-07-12 00:36:00,77.2,74.7,29.86,East,99,0.0,0.0,92,0.00,,,0.00,WUHU216DAVISVP2,2013-07-12 04:36:00,
2013-07-12 00:41:00,77.2,74.7,29.86,East,99,0.0,0.0,92,0.00,,,0.00,WUHU216DAVISVP2,2013-07-12 04:41:00,
2013-07-12 00:46:00,77.2,74.7,29.86,East,99,0.0,0.0,92,0.00,,,0.00,WUHU216DAVISVP2,2013-07-12 04:46:00,
2013-07-12 00:51:00,77.2,74.7,29.86,East,99,0.0,0.0,92,0.00,,,0.00,WUHU216DAVISVP2,2013-07-12 04:51:00,
2013-07-12 00:56:00,77.6,75.1,29.86,East,97,0.0,0.0,92,0.00,,,0.00,WUHU216DAVISVP2,2013-07-12 04:56:00,
2013-07-12 01:01:00,77.2,74.7,29.85,East,97,0.0,0.0,92,0.00,,,0.00,WUHU216DAVISVP2,2013-07-12 05:01:00,
2013-07-12 01:06:00,77.2,74.7,29.85,East,97,0.0,0.0,92,0.00,,,0.00,WUHU216DAVISVP2,2013-07-12 05:06:00,
2013-07-12 01:11:00,77.6,75.1,29.85,East,97,0.0,0.0,92,0.00,,,0.00,WUHU216DAVISVP2,2013-07-12 05:11:00,
2013-07-12 01:16:00,77.2,74.7,29.85,East,97,0.0,0.0,92,0.01,,,0.01,WUHU216DAVISVP2,2013-07-12 05:16:00,
2013-07-12 01:21:00,77.4,74.9,29.85,East,97,0.0,0.0,92,0.01,,,0.01,WUHU216DAVISVP2,2013-07-12 05:21:00,
2013-07-12 01:26:00,77.2,74.7,29.85,East,97,0.0,0.0,92,0.01,,,0.01,WUHU216DAVISVP2,2013-07-12 05:26:00,
2013-07-12 01:31:00,77.6,75.1,29.85,East,97,0.0,0.0,92,0.01,,,0.01,WUHU216DAVISVP2,2013-07-12 05:31:00,
2013-07-12 01:36:00,77.0,74.5,29.85,East,97,0.0,0.0,92,0.01,,,0.01,WUHU216DAVISVP2,2013-07-12 05:36:00,
2013-07-12 01:41:00,77.0,74.5,29.85,NNW,330,0.0,2.0,92,0.01,,,0.01,WUHU216DAVISVP2,2013-07-12 05:41:00,
2013-07-12 01:46:00,77.4,74.9,29.84,North,11,0.0,2.0,92,0.01,,,0.01,WUHU216DAVISVP2,2013-07-12 05:46:00,
2013-07-12 01:51:00,76.8,74.3,29.84,North,11,0.0,0.0,92,0.01,,,0.01,WUHU216DAVISVP2,2013-07-12 05:51:00,
2013-07-12 01:56:00,77.0,74.5,29.84,North,11,0.0,0.0,92,0.01,,,0.01,WUHU216DAVISVP2,2013-07-12 05:56:00,
2013-07-12 02:01:00,77.2,74.7,29.84,North,11,0.0,0.0,92,0.01,,,0.01,WUHU216DAVISVP2,2013-07-12 06:01:00,
2013-07-12 02:06:00,77.0,74.5,29.84,North,11,0.0,0.0,92,0.01,,,0.01,WUHU216DAVISVP2,2013-07-12 06:06:00,
2013-07-12 02:11:00,77.0,74.5,29.84,North,11,0.0,0.0,92,0.01,,,0.01,WUHU216DAVISVP2,2013-07-12 06:11:00,
2013-07-12 02:16:00,76.7,74.2,29.84,North,11,0.0,0.0,92,0.00,,,0.01,WUHU216DAVISVP2,2013-07-12 06:16:00,
2013-07-12 02:21:00,76.7,74.2,29.84,North,11,0.0,0.0,92,0.00,,,0.01,WUHU216DAVISVP2,2013-07-12 06:21:00,
2013-07-12 02:26:00,76.8,74.3,29.84,North,11,0.0,0.0,92,0.00,,,0.01,WUHU216DAVISVP2,2013-07-12 06:26:00,
2013-07-12 02:31:00,76.7,74.2,29.84,North,11,0.0,0.0,92,0.00,,,0.01,WUHU216DAVISVP2,2013-07-12 06:31:00,
2013-07-12 02:36:00,76.5,74.0,29.84,North,11,0.0,0.0,92,0.00,,,0.01,WUHU216DAVISVP2,2013-07-12 06:36:00,
2013-07-12 02:41:00,76.5,74.0,29.84,North,11,0.0,0.0,92,0.00,,,0.01,WUHU216DAVISVP2,2013-07-12 06:41:00,
2013-07-12 02:47:00,76.5,74.0,29.84,North,11,0.0,0.0,92,0.00,,,0.01,WUHU216DAVISVP2,2013-07-12 06:47:00,
2013-07-12 02:52:00,76.8,74.3,29.84,North,11,0.0,0.0,92,0.00,,,0.01,WUHU216DAVISVP2,2013-07-12 06:52:00,
2013-07-12 02:57:00,76.8,74.3,29.84,North,11,0.0,0.0,92,0.00,,,0.01,WUHU216DAVISVP2,2013-07-12 06:57:00,
2013-07-12 03:02:00,76.5,74.0,29.84,North,11,0.0,0.0,92,0.00,,,0.01,WUHU216DAVISVP2,2013-07-12 07:02:00,
2013-07-12 03:07:00,76.7,74.2,29.84,North,11,0.0,0.0,92,0.00,,,0.01,WUHU216DAVISVP2,2013-07-12 07:07:00,
2013-07-12 03:12:00,76.7,74.2,29.84,North,11,0.0,0.0,92,0.00,,,0.01,WUHU216DAVISVP2,2013-07-12 07:12:00,
2013-07-12 03:17:00,76.5,74.0,29.84,North,11,0.0,0.0,92,0.00,,,0.01,WUHU216DAVISVP2,2013-07-12 07:17:00,
2013-07-12 03:22:00,76.7,74.2,29.84,North,11,0.0,0.0,92,0.00,,,0.01,WUHU216DAVISVP2,2013-07-12 07:22:00,
2013-07-12 03:27:00,76.5,74.0,29.84,North,11,0.0,0.0,92,0.00,,,0.01,WUHU216DAVISVP2,2013-07-12 07:27:00,
2013-07-12 03:32:00,76.7,74.2,29.83,North,11,0.0,0.0,92,0.00,,,0.01,WUHU216DAVISVP2,2013-07-12 07:32:00,
2013-07-12 03:37:00,76.5,74.0,29.83,North,11,0.0,0.0,92,0.00,,,0.01,WUHU216DAVISVP2,2013-07-12 07:37:00,
2013-07-12 03:42:00,76.5,74.0,29.83,North,11,0.0,0.0,92,0.00,,,0.01,WUHU216DAVISVP2,2013-07-12 07:42:00,
2013-07-12 03:47:00,76.5,74.0,29.83,North,11,0.0,0.0,92,0.00,,,0.01,WUHU216DAVISVP2,2013-07-12 07:47:00,
2013-07-12 03:52:00,76.5,74.0,29.83,North,11,0.0,0.0,92,0.00,,,0.01,WUHU216DAVISVP2,2013-07-12 07:52:00,
2013-07-12 03:57:00,77.0,74.5,29.83,North,11,0.0,0.0,92,0.00,,,0.01,WUHU216DAVISVP2,2013-07-12 07:57:00,
2013-07-12 04:02:00,76.7,74.2,29.83,North,11,0.0,0.0,92,0.00,,,0.01,WUHU216DAVISVP2,2013-07-12 08:02:00,
2013-07-12 04:07:00,76.7,74.2,29.83,North,11,0.0,0.0,92,0.00,,,0.01,WUHU216DAVISVP2,2013-07-12 08:07:00,
2013-07-12 04:12:00,76.8,74.3,29.83,North,11,0.0,0.0,92,0.00,,,0.01,WUHU216DAVISVP2,2013-07-12 08:12:00,
2013-07-12 04:17:00,76.5,74.0,29.82,North,11,0.0,0.0,92,0.00,,,0.01,WUHU216DAVISVP2,2013-07-12 08:17:00,
2013-07-12 04:22:00,76.5,74.0,29.82,North,11,0.0,0.0,92,0.00,,,0.01,WUHU216DAVISVP2,2013-07-12 08:22:00,
2013-07-12 04:27:00,76.5,74.0,29.82,North,11,0.0,0.0,92,0.00,,,0.01,WUHU216DAVISVP2,2013-07-12 08:27:00,
2013-07-12 04:32:00,76.5,74.0,29.83,North,11,0.0,0.0,92,0.00,,,0.01,WUHU216DAVISVP2,2013-07-12 08:32:00,
2013-07-12 04:37:00,76.5,74.0,29.83,North,11,0.0,0.0,92,0.00,,,0.01,WUHU216DAVISVP2,2013-07-12 08:37:00,
2013-07-12 04:42:00,76.5,74.0,29.83,North,11,0.0,0.0,92,0.00,,,0.01,WUHU216DAVISVP2,2013-07-12 08:42:00,
2013-07-12 04:47:00,76.5,74.0,29.83,North,11,0.0,0.0,92,0.00,,,0.01,WUHU216DAVISVP2,2013-07-12 08:47:00,
2013-07-12 04:52:00,76.3,73.8,29.83,North,11,0.0,0.0,92,0.00,,,0.01,WUHU216DAVISVP2,2013-07-12 08:52:00,
2013-07-12 04:57:00,76.5,74.0,29.83,North,11,0.0,0.0,92,0.00,,,0.01,WUHU216DAVISVP2,2013-07-12 08:57:00,
2013-07-12 05:02:00,76.5,74.0,29.84,North,11,0.0,0.0,92,0.00,,,0.01,WUHU216DAVISVP2,2013-07-12 09:02:00,
2013-07-12 05:07:00,76.5,74.0,29.84,North,11,0.0,0.0,92,0.00,,,0.01,WUHU216DAVISVP2,2013-07-12 09:07:00,
2013-07-12 05:12:00,76.5,74.0,29.84,North,11,0.0,0.0,92,0.00,,,0.01,WUHU216DAVISVP2,2013-07-12 09:12:00,
2013-07-12 05:17:00,77.0,74.5,29.84,North,11,0.0,0.0,92,0.00,,,0.01,WUHU216DAVISVP2,2013-07-12 09:17:00,
2013-07-12 05:22:00,76.5,74.0,29.84,North,11,0.0,0.0,92,0.00,,,0.01,WUHU216DAVISVP2,2013-07-12 09:22:00,
2013-07-12 05:27:00,76.5,74.0,29.84,North,11,0.0,0.0,92,0.00,,,0.01,WUHU216DAVISVP2,2013-07-12 09:27:00,
2013-07-12 05:32:00,76.5,74.0,29.84,North,11,0.0,0.0,92,0.00,,,0.01,WUHU216DAVISVP2,2013-07-12 09:32:00,
2013-07-12 05:37:00,76.8,74.3,29.84,North,11,0.0,0.0,92,0.00,,,0.01,WUHU216DAVISVP2,2013-07-12 09:37:00,
2013-07-12 05:42:00,76.5,74.0,29.84,North,11,0.0,0.0,92,0.00,,,0.01,WUHU216DAVISVP2,2013-07-12 09:42:00,
2013-07-12 05:47:00,76.5,74.0,29.85,North,11,0.0,0.0,92,0.00,,,0.01,WUHU216DAVISVP2,2013-07-12 09:47:00,
2013-07-12 05:52:00,76.5,74.0,29.85,North,11,0.0,0.0,92,0.00,,,0.01,WUHU216DAVISVP2,2013-07-12 09:52:00,
2013-07-12 05:57:00,76.5,74.0,29.85,North,11,0.0,0.0,92,0.00,,,0.01,WUHU216DAVISVP2,2013-07-12 09:57:00,
2013-07-12 06:02:00,76.5,74.0,29.86,North,11,0.0,0.0,92,0.00,,,0.01,WUHU216DAVISVP2,2013-07-12 10:02:00,
2013-07-12 06:07:00,76.7,74.2,29.86,North,11,0.0,0.0,92,0.00,,,0.01,WUHU216DAVISVP2,2013-07-12 10:07:00,
2013-07-12 06:12:00,76.7,74.2,29.86,North,11,0.0,0.0,92,0.00,,,0.01,WUHU216DAVISVP2,2013-07-12 10:12:00,
2013-07-12 06:17:00,76.7,74.2,29.86,North,11,0.0,0.0,92,0.00,,,0.01,WUHU216DAVISVP2,2013-07-12 10:17:00,
2013-07-12 06:22:00,77.2,74.7,29.86,North,11,0.0,0.0,92,0.00,,,0.01,WUHU216DAVISVP2,2013-07-12 10:22:00,
2013-07-12 06:27:00,77.2,74.7,29.86,North,11,0.0,0.0,92,0.00,,,0.01,WUHU216DAVISVP2,2013-07-12 10:27:00,
2013-07-12 06:32:00,77.2,74.7,29.86,North,11,0.0,0.0,92,0.00,,,0.01,WUHU216DAVISVP2,2013-07-12 10:32:00,
2013-07-12 06:37:00,77.2,74.7,29.86,North,11,0.0,0.0,92,0.00,,,0.01,WUHU216DAVISVP2,2013-07-12 10:37:00,
2013-07-12 06:42:00,77.2,74.7,29.86,North,11,0.0,0.0,92,0.00,,,0.01,WUHU216DAVISVP2,2013-07-12 10:42:00,
2013-07-12 06:47:00,77.4,74.9,29.86,North,11,0.0,0.0,92,0.00,,,0.01,WUHU216DAVISVP2,2013-07-12 10:47:00,
2013-07-12 06:52:00,77.4,74.9,29.86,North,11,0.0,0.0,92,0.00,,,0.01,WUHU216DAVISVP2,2013-07-12 10:52:00,
2013-07-12 06:57:00,76.8,74.3,29.86,North,11,0.0,0.0,92,0.00,,,0.01,WUHU216DAVISVP2,2013-07-12 10:57:00,
2013-07-12 07:02:00,76.8,74.3,29.86,North,11,0.0,0.0,92,0.00,,,0.01,WUHU216DAVISVP2,2013-07-12 11:02:00,
2013-07-12 07:07:00,77.0,74.5,29.86,North,11,0.0,0.0,92,0.00,,,0.01,WUHU216DAVISVP2,2013-07-12 11:07:00,
2013-07-12 07:12:00,76.3,73.8,29.86,North,11,0.0,0.0,92,0.00,,,0.01,WUHU216DAVISVP2,2013-07-12 11:12:00,
2013-07-12 07:17:00,76.7,74.2,29.86,North,11,0.0,0.0,92,0.00,,,0.01,WUHU216DAVISVP2,2013-07-12 11:17:00,
2013-07-12 07:22:00,76.5,74.0,29.86,North,11,0.0,0.0,92,0.00,,,0.01,WUHU216DAVISVP2,2013-07-12 11:22:00,
2013-07-12 07:27:00,76.0,73.5,29.86,North,11,0.0,0.0,92,0.00,,,0.01,WUHU216DAVISVP2,2013-07-12 11:27:00,
2013-07-12 07:32:00,76.0,73.5,29.86,North,11,0.0,0.0,92,0.00,,,0.01,WUHU216DAVISVP2,2013-07-12 11:32:00,
2013-07-12 07:37:00,76.7,74.2,29.86,North,11,0.0,0.0,92,0.00,,,0.01,WUHU216DAVISVP2,2013-07-12 11:37:00,
2013-07-12 07:42:00,76.1,73.6,29.86,North,11,0.0,0.0,92,0.00,,,0.01,WUHU216DAVISVP2,2013-07-12 11:42:00,
2013-07-12 07:47:00,76.1,73.6,29.86,North,11,0.0,0.0,92,0.00,,,0.01,WUHU216DAVISVP2,2013-07-12 11:47:00,
2013-07-12 07:52:00,76.7,74.2,29.86,North,11,0.0,0.0,92,0.00,,,0.01,WUHU216DAVISVP2,2013-07-12 11:52:00,
2013-07-12 07:57:00,76.1,73.6,29.86,North,11,0.0,0.0,92,0.00,,,0.01,WUHU216DAVISVP2,2013-07-12 11:57:00,
2013-07-12 08:02:00,76.1,73.6,29.86,North,11,0.0,0.0,92,0.00,,,0.01,WUHU216DAVISVP2,2013-07-12 12:02:00,
2013-07-12 08:09:00,76.0,73.5,29.86,North,11,0.0,0.0,92,0.00,,,0.01,WUHU216DAVISVP2,2013-07-12 12:09:00,
2013-07-12 08:13:00,75.8,73.3,29.87,North,11,0.0,0.0,92,0.00,,,0.01,WUHU216DAVISVP2,2013-07-12 12:13:00,
2013-07-12 08:19:00,75.8,73.3,29.87,North,11,0.0,0.0,92,0.00,,,0.01,WUHU216DAVISVP2,2013-07-12 12:19:00,
2013-07-12 08:24:00,76.0,73.5,29.87,North,11,0.0,0.0,92,0.00,,,0.01,WUHU216DAVISVP2,2013-07-12 12:24:00,
2013-07-12 08:25:00,76.1,73.6,29.87,North,0,0.0,0.0,92,0.00,,,0.01,WUHU216DAVISVP2,2013-07-12 12:25:00,
2013-07-12 08:30:00,75.9,73.4,29.87,North,0,0.0,0.0,92,0.00,,,0.01,WUHU216DAVISVP2,2013-07-12 12:30:00,
2013-07-12 08:35:00,75.7,73.2,29.87,North,0,0.0,0.0,92,0.00,,,0.01,WUHU216DAVISVP2,2013-07-12 12:35:00,
2013-07-12 08:40:00,75.6,73.1,29.87,North,0,0.0,1.0,92,0.00,,,0.01,WUHU216DAVISVP2,2013-07-12 12:40:00,
2013-07-12 08:45:00,75.1,72.6,29.88,North,0,0.0,1.0,92,0.00,,,0.01,WUHU216DAVISVP2,2013-07-12 12:45:00,
2013-07-12 08:50:00,75.0,72.5,29.88,North,0,0.0,1.0,92,0.00,,,0.01,WUHU216DAVISVP2,2013-07-12 12:50:00,
2013-07-12 08:55:00,74.9,72.4,29.88,North,0,0.0,0.0,92,0.00,,,0.01,WUHU216DAVISVP2,2013-07-12 12:55:00,
2013-07-12 09:00:00,74.5,72.0,29.88,North,0,0.0,2.0,92,0.00,,,0.01,WUHU216DAVISVP2,2013-07-12 13:00:00,
2013-07-12 09:05:00,74.3,71.8,29.88,North,0,0.0,2.0,92,0.00,,,0.01,WUHU216DAVISVP2,2013-07-12 13:05:00,
2013-07-12 09:10:00,74.2,71.7,29.88,North,0,0.0,2.0,92,0.00,,,0.01,WUHU216DAVISVP2,2013-07-12 13:10:00,
2013-07-12 09:15:00,74.3,71.8,29.89,North,0,0.0,0.0,92,0.00,,,0.01,WUHU216DAVISVP2,2013-07-12 13:15:00,
2013-07-12 09:20:00,74.4,71.9,29.89,North,0,0.0,0.0,92,0.00,,,0.01,WUHU216DAVISVP2,2013-07-12 13:20:00,
2013-07-12 09:25:00,74.3,71.8,29.89,North,0,0.0,0.0,92,0.00,,,0.01,WUHU216DAVISVP2,2013-07-12 13:25:00,
2013-07-12 09:30:00,74.3,71.8,29.89,North,0,0.0,0.0,92,0.00,,,0.01,WUHU216DAVISVP2,2013-07-12 13:30:00,
2013-07-12 09:35:00,74.0,71.2,29.89,North,0,0.0,0.0,91,0.00,,,0.01,WUHU216DAVISVP2,2013-07-12 13:35:00,
2013-07-12 09:40:00,74.0,71.5,29.89,North,0,0.0,0.0,92,0.00,,,0.01,WUHU216DAVISVP2,2013-07-12 13:40:00,
2013-07-12 09:45:00,74.2,71.4,29.89,North,0,0.0,0.0,91,0.00,,,0.01,WUHU216DAVISVP2,2013-07-12 13:45:00,
2013-07-12 09:50:00,74.1,71.3,29.89,North,0,0.0,0.0,91,0.00,,,0.01,WUHU216DAVISVP2,2013-07-12 13:50:00,
2013-07-12 09:55:00,73.8,71.0,29.89,North,0,0.0,0.0,91,0.00,,,0.01,WUHU216DAVISVP2,2013-07-12 13:55:00,
2013-07-12 10:00:00,73.8,71.0,29.89,North,0,0.0,0.0,91,0.00,,,0.01,WUHU216DAVISVP2,2013-07-12 14:00:00,
2013-07-12 10:05:00,73.9,71.1,29.89,North,0,0.0,0.0,91,0.00,,,0.01,WUHU216DAVISVP2,2013-07-12 14:05:00,
2013-07-12 10:10:00,74.1,71.3,29.89,North,0,0.0,0.0,91,0.00,,,0.01,WUHU216DAVISVP2,2013-07-12 14:10:00,
2013-07-12 10:15:00,74.4,71.6,29.89,North,0,0.0,2.0,91,0.00,,,0.01,WUHU216DAVISVP2,2013-07-12 14:15:00,
2013-07-12 10:20:00,74.5,71.7,29.89,North,0,0.0,2.0,91,0.00,,,0.01,WUHU216DAVISVP2,2013-07-12 14:20:00,
2013-07-12 10:25:00,74.4,71.6,29.89,North,0,0.0,2.0,91,0.00,,,0.01,WUHU216DAVISVP2,2013-07-12 14:25:00,
2013-07-12 10:34:00,74.2,71.4,29.90,North,0,0.0,0.0,91,0.00,,,0.01,WUHU216DAVISVP2,2013-07-12 14:34:00,
2013-07-12 10:39:00,74.4,71.6,29.90,North,0,0.0,0.0,91,0.00,,,0.01,WUHU216DAVISVP2,2013-07-12 14:39:00,
2013-07-12 10:44:00,74.4,71.6,29.90,North,0,0.0,0.0,91,0.00,,,0.01,WUHU216DAVISVP2,2013-07-12 14:44:00,
2013-07-12 10:49:00,74.6,71.8,29.90,North,0,0.0,0.0,91,0.00,,,0.01,WUHU216DAVISVP2,2013-07-12 14:49:00,
2013-07-12 10:54:00,74.4,71.6,29.90,North,0,0.0,0.0,91,0.00,,,0.01,WUHU216DAVISVP2,2013-07-12 14:54:00,
2013-07-12 10:59:00,74.4,71.6,29.91,North,0,0.0,2.0,91,0.00,,,0.01,WUHU216DAVISVP2,2013-07-12 14:59:00,
2013-07-12 11:04:00,74.6,71.8,29.91,North,0,0.0,2.0,91,0.00,,,0.01,WUHU216DAVISVP2,2013-07-12 15:04:00,
2013-07-12 11:09:00,74.6,71.8,29.91,North,0,0.0,2.0,91,0.00,,,0.01,WUHU216DAVISVP2,2013-07-12 15:09:00,
2013-07-12 11:14:00,74.6,71.8,29.90,North,0,0.0,2.0,91,0.00,,,0.01,WUHU216DAVISVP2,2013-07-12 15:14:00,
2013-07-12 11:19:00,74.4,71.3,29.90,North,359,0.0,2.0,90,0.00,,,0.01,WUHU216DAVISVP2,2013-07-12 15:19:00,
2013-07-12 11:24:00,74.4,71.3,29.90,North,359,0.0,2.0,90,0.00,,,0.01,WUHU216DAVISVP2,2013-07-12 15:24:00,
2013-07-12 11:29:00,74.6,71.5,29.91,North,359,0.0,0.0,90,0.00,,,0.01,WUHU216DAVISVP2,2013-07-12 15:29:00,
2013-07-12 11:34:00,74.6,71.5,29.91,North,357,0.0,0.0,90,0.00,,,0.01,WUHU216DAVISVP2,2013-07-12 15:34:00,
2013-07-12 11:39:00,74.6,71.5,29.91,North,357,0.0,0.0,90,0.00,,,0.01,WUHU216DAVISVP2,2013-07-12 15:39:00,
2013-07-12 11:44:00,74.7,71.6,29.91,North,357,0.0,0.0,90,0.00,,,0.01,WUHU216DAVISVP2,2013-07-12 15:44:00,
2013-07-12 11:49:00,74.6,71.5,29.91,NNW,339,0.0,4.0,90,0.00,,,0.01,WUHU216DAVISVP2,2013-07-12 15:49:00,
2013-07-12 11:54:00,74.4,71.3,29.91,ESE,102,0.0,4.0,90,0.00,,,0.01,WUHU216DAVISVP2,2013-07-12 15:54:00,
2013-07-12 11:59:00,74.4,70.9,29.91,ENE,62,0.0,2.0,89,0.00,,,0.01,WUHU216DAVISVP2,2013-07-12 15:59:00,
2013-07-12 12:04:00,74.6,71.1,29.91,NNW,330,0.0,2.0,89,0.00,,,0.01,WUHU216DAVISVP2,2013-07-12 16:04:00,
2013-07-12 12:09:00,74.7,71.2,29.91,NNW,330,0.0,2.0,89,0.00,,,0.01,WUHU216DAVISVP2,2013-07-12 16:09:00,
2013-07-12 12:14:00,74.9,71.4,29.91,NW,309,0.0,4.0,89,0.00,,,0.01,WUHU216DAVISVP2,2013-07-12 16:14:00,
2013-07-12 12:19:00,75.1,71.6,29.91,NW,309,0.0,4.0,89,0.00,,,0.01,WUHU216DAVISVP2,2013-07-12 16:19:00,
2013-07-12 12:24:00,75.1,71.6,29.91,North,349,0.0,4.0,89,0.00,,,0.01,WUHU216DAVISVP2,2013-07-12 16:24:00,
2013-07-12 12:29:00,75.1,71.3,29.91,East,83,0.0,4.0,88,0.00,,,0.01,WUHU216DAVISVP2,2013-07-12 16:29:00,
2013-07-12 12:34:00,74.9,71.1,29.91,East,83,0.0,0.0,88,0.00,,,0.01,WUHU216DAVISVP2,2013-07-12 16:34:00,
2013-07-12 12:39:00,75.1,71.3,29.91,ENE,78,0.0,0.0,88,0.00,,,0.01,WUHU216DAVISVP2,2013-07-12 16:39:00,
2013-07-12 12:44:00,75.4,71.6,29.91,ENE,78,0.0,0.0,88,0.00,,,0.01,WUHU216DAVISVP2,2013-07-12 16:44:00,
2013-07-12 12:49:00,75.6,71.8,29.91,NNW,342,0.0,2.0,88,0.00,,,0.01,WUHU216DAVISVP2,2013-07-12 16:49:00,
2013-07-12 12:54:00,75.8,72.0,29.91,NNW,342,0.0,2.0,88,0.00,,,0.01,WUHU216DAVISVP2,2013-07-12 16:54:00,
2013-07-12 13:00:00,75.8,72.0,29.90,NNW,343,0.0,2.0,88,0.00,,,0.01,WUHU216DAVISVP2,2013-07-12 17:00:00,
2013-07-12 13:05:00,75.6,71.8,29.90,North,10,0.0,2.0,88,0.00,,,0.01,WUHU216DAVISVP2,2013-07-12 17:05:00,
2013-07-12 13:10:00,75.4,71.3,29.90,North,8,0.0,0.0,87,0.00,,,0.01,WUHU216DAVISVP2,2013-07-12 17:10:00,
2013-07-12 13:15:00,75.4,71.3,29.91,West,278,0.0,4.0,87,0.00,,,0.01,WUHU216DAVISVP2,2013-07-12 17:15:00,
2013-07-12 13:20:00,75.4,71.3,29.91,NW,306,0.0,4.0,87,0.00,,,0.01,WUHU216DAVISVP2,2013-07-12 17:20:00,
2013-07-12 13:25:00,75.6,71.5,29.91,NW,309,0.0,4.0,87,0.00,,,0.01,WUHU216DAVISVP2,2013-07-12 17:25:00,
2013-07-12 13:30:00,75.8,71.7,29.90,NNW,340,0.0,0.0,87,0.00,,,0.01,WUHU216DAVISVP2,2013-07-12 17:30:00,
2013-07-12 13:35:00,76.0,71.8,29.90,NNW,336,0.0,2.0,87,0.00,,,0.01,WUHU216DAVISVP2,2013-07-12 17:35:00,
2013-07-12 13:41:00,75.8,71.3,29.90,North,4,0.0,4.0,86,0.00,,,0.01,WUHU216DAVISVP2,2013-07-12 17:41:00,
2013-07-12 13:46:00,75.8,71.3,29.91,West,264,0.0,4.0,86,0.00,,,0.01,WUHU216DAVISVP2,2013-07-12 17:46:00,
2013-07-12 13:51:00,75.8,71.3,29.91,WNW,282,0.0,4.0,86,0.00,,,0.01,WUHU216DAVISVP2,2013-07-12 17:51:00,
2013-07-12 13:56:00,76.0,71.5,29.91,North,356,4.0,4.0,86,0.00,,,0.01,WUHU216DAVISVP2,2013-07-12 17:56:00,
2013-07-12 14:01:00,75.8,71.3,29.91,NW,304,0.0,4.0,86,0.00,,,0.01,WUHU216DAVISVP2,2013-07-12 18:01:00,
2013-07-12 14:07:00,75.6,71.1,29.91,WNW,302,0.0,4.0,86,0.00,,,0.01,WUHU216DAVISVP2,2013-07-12 18:07:00,
2013-07-12 14:12:00,75.3,70.8,29.91,NNE,32,0.0,4.0,86,0.00,,,0.01,WUHU216DAVISVP2,2013-07-12 18:12:00,
2013-07-12 14:17:00,74.9,70.5,29.91,NW,312,4.0,10.0,86,0.00,,,0.01,WUHU216DAVISVP2,2013-07-12 18:17:00,
2013-07-12 14:22:00,74.7,70.6,29.91,North,356,0.0,10.0,87,0.00,,,0.01,WUHU216DAVISVP2,2013-07-12 18:22:00,
2013-07-12 14:27:00,74.6,70.2,29.91,NNW,343,0.0,7.0,86,0.00,,,0.01,WUHU216DAVISVP2,2013-07-12 18:27:00,
2013-07-12 14:33:00,74.4,70.3,29.91,North,352,0.0,7.0,87,0.00,,,0.01,WUHU216DAVISVP2,2013-07-12 18:33:00,
2013-07-12 14:38:00,74.4,70.3,29.91,East,96,0.0,2.0,87,0.00,,,0.01,WUHU216DAVISVP2,2013-07-12 18:38:00,
2013-07-12 14:43:00,74.2,70.1,29.91,NW,313,1.0,4.0,87,0.00,,,0.01,WUHU216DAVISVP2,2013-07-12 18:43:00,
2013-07-12 14:49:00,74.2,70.1,29.91,WNW,288,1.0,4.0,87,0.00,,,0.01,WUHU216DAVISVP2,2013-07-12 18:49:00,
2013-07-12 14:54:00,74.2,70.1,29.91,NW,320,0.0,4.0,87,0.00,,,0.01,WUHU216DAVISVP2,2013-07-12 18:54:00,
2013-07-12 15:00:00,74.4,70.3,29.92,NW,320,0.0,4.0,87,0.00,,,0.01,WUHU216DAVISVP2,2013-07-12 19:00:00,
2013-07-12 15:05:00,74.4,70.3,29.92,WNW,302,0.0,6.0,87,0.00,,,0.01,WUHU216DAVISVP2,2013-07-12 19:05:00,
2013-07-12 15:10:00,74.2,70.1,29.92,NW,322,0.0,6.0,87,0.00,,,0.01,WUHU216DAVISVP2,2013-07-12 19:10:00,
2013-07-12 15:15:00,74.4,70.3,29.91,North,8,0.0,1.0,87,0.00,,,0.01,WUHU216DAVISVP2,2013-07-12 19:15:00,
2013-07-12 15:20:00,74.7,70.6,29.91,North,7,1.0,1.0,87,0.00,,,0.01,WUHU216DAVISVP2,2013-07-12 19:20:00,
2013-07-12 15:25:00,74.7,70.2,29.91,NNE,20,0.0,1.0,86,0.00,,,0.01,WUHU216DAVISVP2,2013-07-12 19:25:00,
2013-07-12 15:30:00,75.1,71.0,29.91,NNE,20,0.0,0.0,87,0.00,,,0.01,WUHU216DAVISVP2,2013-07-12 19:30:00,
2013-07-12 15:35:00,75.3,70.8,29.91,ENE,68,0.0,1.0,86,0.00,,,0.01,WUHU216DAVISVP2,2013-07-12 19:35:00,
2013-07-12 15:40:00,75.3,70.5,29.91,NW,316,0.0,1.0,85,0.00,,,0.01,WUHU216DAVISVP2,2013-07-12 19:40:00,
2013-07-12 15:45:00,75.4,70.9,29.91,NW,316,0.0,1.0,86,0.00,,,0.01,WUHU216DAVISVP2,2013-07-12 19:45:00,
2013-07-12 15:50:00,75.4,70.6,29.91,North,11,0.0,0.0,85,0.00,,,0.01,WUHU216DAVISVP2,2013-07-12 19:50:00,
2013-07-12 15:55:00,75.4,70.6,29.91,NW,318,0.0,2.0,85,0.00,,,0.01,WUHU216DAVISVP2,2013-07-12 19:55:00,
2013-07-12 16:00:00,75.4,70.6,29.91,NW,318,0.0,2.0,85,0.00,,,0.01,WUHU216DAVISVP2,2013-07-12 20:00:00,
2013-07-12 16:05:00,75.6,70.8,29.91,NNW,328,0.0,1.0,85,0.00,,,0.01,WUHU216DAVISVP2,2013-07-12 20:05:00,
2013-07-12 16:11:00,75.6,70.8,29.91,NNW,328,0.0,0.0,85,0.00,,,0.01,WUHU216DAVISVP2,2013-07-12 20:11:00,
2013-07-12 16:17:00,75.8,71.0,29.92,NNW,328,0.0,0.0,85,0.00,,,0.01,WUHU216DAVISVP2,2013-07-12 20:17:00,
2013-07-12 16:22:00,75.8,71.0,29.92,NNW,328,0.0,0.0,85,0.00,,,0.01,WUHU216DAVISVP2,2013-07-12 20:22:00,
2013-07-12 16:27:00,75.8,71.0,29.92,East,79,0.0,0.0,85,0.00,,,0.01,WUHU216DAVISVP2,2013-07-12 20:27:00,
2013-07-12 16:32:00,75.8,71.0,29.92,ENE,78,0.0,0.0,85,0.00,,,0.01,WUHU216DAVISVP2,2013-07-12 20:32:00,
2013-07-12 16:37:00,75.8,71.0,29.92,ENE,73,0.0,0.0,85,0.00,,,0.01,WUHU216DAVISVP2,2013-07-12 20:37:00,
2013-07-12 16:43:00,76.0,70.8,29.92,ENE,73,0.0,0.0,84,0.00,,,0.01,WUHU216DAVISVP2,2013-07-12 20:43:00,
2013-07-12 16:48:00,76.0,70.9,29.92,ENE,73,0.0,0.0,84,0.00,,,0.01,WUHU216DAVISVP2,2013-07-12 20:48:00,
2013-07-12 16:53:00,76.0,70.9,29.92,ENE,73,0.0,0.0,84,0.00,,,0.01,WUHU216DAVISVP2,2013-07-12 20:53:00,
2013-07-12 16:58:00,76.0,70.9,29.92,ENE,73,0.0,0.0,84,0.00,,,0.01,WUHU216DAVISVP2,2013-07-12 20:58:00,
2013-07-12 17:03:00,76.0,70.9,29.92,ENE,73,0.0,0.0,84,0.00,,,0.01,WUHU216DAVISVP2,2013-07-12 21:03:00,
2013-07-12 17:09:00,76.0,70.9,29.92,ENE,73,0.0,0.0,84,0.00,,,0.01,WUHU216DAVISVP2,2013-07-12 21:09:00,
2013-07-12 17:14:00,76.0,70.9,29.92,ENE,73,0.0,0.0,84,0.00,,,0.01,WUHU216DAVISVP2,2013-07-12 21:14:00,
2013-07-12 17:20:00,76.0,70.9,29.92,ENE,73,0.0,0.0,84,0.00,,,0.01,WUHU216DAVISVP2,2013-07-12 21:20:00,
2013-07-12 17:25:00,76.0,70.9,29.92,ENE,73,0.0,0.0,84,0.00,,,0.01,WUHU216DAVISVP2,2013-07-12 21:25:00,
2013-07-12 17:30:00,76.0,70.9,29.92,ENE,73,0.0,0.0,84,0.00,,,0.01,WUHU216DAVISVP2,2013-07-12 21:30:00,
2013-07-12 17:35:00,76.0,70.9,29.92,ENE,73,0.0,0.0,84,0.00,,,0.01,WUHU216DAVISVP2,2013-07-12 21:35:00,
2013-07-12 18:46:00,75.8,71.3,29.93,ENE,73,0.0,0.0,86,0.00,,,0.01,WUHU216DAVISVP2,2013-07-12 22:46:00,
2013-07-12 18:51:00,76.0,71.5,29.93,ENE,73,0.0,0.0,86,0.00,,,0.01,WUHU216DAVISVP2,2013-07-12 22:51:00,
2013-07-12 18:56:00,75.8,71.3,29.93,ENE,73,0.0,0.0,86,0.00,,,0.01,WUHU216DAVISVP2,2013-07-12 22:56:00,
2013-07-12 19:01:00,75.8,71.3,29.92,ENE,72,0.0,0.0,86,0.00,,,0.01,WUHU216DAVISVP2,2013-07-12 23:01:00,
2013-07-12 19:06:00,75.6,71.1,29.92,ENE,72,0.0,0.0,86,0.00,,,0.01,WUHU216DAVISVP2,2013-07-12 23:06:00,
2013-07-12 19:11:00,75.3,70.8,29.92,NW,313,0.0,0.0,86,0.00,,,0.01,WUHU216DAVISVP2,2013-07-12 23:11:00,
2013-07-12 19:16:00,75.1,70.7,29.93,NW,313,0.0,0.0,86,0.00,,,0.01,WUHU216DAVISVP2,2013-07-12 23:16:00,
2013-07-12 19:21:00,74.9,70.5,29.93,NW,313,0.0,0.0,86,0.00,,,0.01,WUHU216DAVISVP2,2013-07-12 23:21:00,
2013-07-12 19:26:00,74.9,70.5,29.93,NW,313,0.0,0.0,86,0.00,,,0.01,WUHU216DAVISVP2,2013-07-12 23:26:00,
2013-07-12 19:32:00,74.9,70.4,29.94,NW,313,0.0,0.0,86,0.00,,,0.01,WUHU216DAVISVP2,2013-07-12 23:32:00,
2013-07-12 19:37:00,74.9,70.5,29.94,NW,313,0.0,0.0,86,0.00,,,0.01,WUHU216DAVISVP2,2013-07-12 23:37:00,
2013-07-12 19:42:00,74.7,70.3,29.94,NW,313,0.0,0.0,86,0.00,,,0.01,WUHU216DAVISVP2,2013-07-12 23:42:00,
2013-07-12 19:47:00,74.7,70.3,29.94,NW,319,0.0,0.0,86,0.00,,,0.01,WUHU216DAVISVP2,2013-07-12 23:47:00,
2013-07-12 19:53:00,74.7,70.3,29.94,NW,319,0.0,0.0,86,0.00,,,0.01,WUHU216DAVISVP2,2013-07-12 23:53:00,
2013-07-12 19:58:00,74.6,70.2,29.94,NW,319,0.0,0.0,86,0.00,,,0.01,WUHU216DAVISVP2,2013-07-12 23:58:00,
2013-07-12 20:03:00,74.4,70.0,29.95,NW,319,0.0,0.0,86,0.00,,,0.01,WUHU216DAVISVP2,2013-07-13 00:03:00,
2013-07-12 20:08:00,74.4,70.0,29.95,NW,319,0.0,0.0,86,0.00,,,0.01,WUHU216DAVISVP2,2013-07-13 00:08:00,
2013-07-12 20:13:00,74.2,69.8,29.95,NW,322,0.0,0.0,86,0.00,,,0.01,WUHU216DAVISVP2,2013-07-13 00:13:00,
2013-07-12 20:19:00,74.2,69.8,29.95,NW,322,0.0,0.0,86,0.00,,,0.01,WUHU216DAVISVP2,2013-07-13 00:19:00,
2013-07-12 20:24:00,74.2,69.8,29.95,NW,323,0.0,0.0,86,0.00,,,0.01,WUHU216DAVISVP2,2013-07-13 00:24:00,
2013-07-12 20:29:00,74.2,69.8,29.95,NW,323,0.0,0.0,86,0.00,,,0.01,WUHU216DAVISVP2,2013-07-13 00:29:00,
2013-07-12 20:34:00,74.2,69.8,29.95,NW,323,0.0,0.0,86,0.00,,,0.01,WUHU216DAVISVP2,2013-07-13 00:34:00,
2013-07-12 20:39:00,74.2,69.8,29.95,NW,323,0.0,0.0,86,0.00,,,0.01,WUHU216DAVISVP2,2013-07-13 00:39:00,
2013-07-12 20:44:00,74.0,69.6,29.95,NW,323,0.0,0.0,86,0.00,,,0.01,WUHU216DAVISVP2,2013-07-13 00:44:00,
2013-07-12 20:49:00,74.2,69.8,29.95,NW,323,0.0,0.0,86,0.00,,,0.01,WUHU216DAVISVP2,2013-07-13 00:49:00,
2013-07-12 20:54:00,74.2,70.4,29.95,NW,323,0.0,0.0,88,0.00,,,0.01,WUHU216DAVISVP2,2013-07-13 00:54:00,
2013-07-12 20:59:00,73.9,70.1,29.95,NW,323,0.0,0.0,88,0.00,,,0.01,WUHU216DAVISVP2,2013-07-13 00:59:00,
2013-07-12 21:04:00,73.9,70.1,29.95,NW,323,0.0,0.0,88,0.00,,,0.01,WUHU216DAVISVP2,2013-07-13 01:04:00,
2013-07-12 21:09:00,73.9,70.1,29.95,NW,323,0.0,0.0,88,0.00,,,0.01,WUHU216DAVISVP2,2013-07-13 01:09:00,
2013-07-12 21:15:00,73.9,70.1,29.95,NW,323,0.0,0.0,88,0.00,,,0.01,WUHU216DAVISVP2,2013-07-13 01:15:00,
2013-07-12 21:20:00,73.9,70.1,29.95,NW,323,0.0,0.0,88,0.00,,,0.01,WUHU216DAVISVP2,2013-07-13 01:20:00,
2013-07-12 21:25:00,73.9,70.1,29.95,NW,323,0.0,0.0,88,0.00,,,0.01,WUHU216DAVISVP2,2013-07-13 01:25:00,
2013-07-12 21:31:00,74.0,70.2,29.96,NW,323,0.0,1.0,88,0.00,,,0.01,WUHU216DAVISVP2,2013-07-13 01:31:00,
2013-07-12 21:36:00,73.9,70.1,29.96,NW,323,0.0,1.0,88,0.00,,,0.01,WUHU216DAVISVP2,2013-07-13 01:36:00,
2013-07-12 21:42:00,73.9,70.1,29.96,NW,323,0.0,0.0,88,0.00,,,0.01,WUHU216DAVISVP2,2013-07-13 01:42:00,
2013-07-12 21:47:00,73.9,70.1,29.97,NW,323,0.0,0.0,88,0.00,,,0.01,WUHU216DAVISVP2,2013-07-13 01:47:00,
2013-07-12 21:52:00,74.0,70.2,29.97,NNW,343,0.0,0.0,88,0.00,,,0.01,WUHU216DAVISVP2,2013-07-13 01:52:00,
2013-07-12 21:57:00,73.9,70.1,29.97,NNW,343,0.0,0.0,88,0.00,,,0.01,WUHU216DAVISVP2,2013-07-13 01:57:00,
2013-07-12 22:02:00,73.9,70.1,29.98,NNW,343,0.0,0.0,88,0.00,,,0.01,WUHU216DAVISVP2,2013-07-13 02:02:00,
2013-07-12 22:07:00,73.9,70.4,29.98,NNW,343,0.0,0.0,89,0.00,,,0.01,WUHU216DAVISVP2,2013-07-13 02:07:00,
2013-07-12 22:12:00,73.9,70.4,29.98,NNW,344,0.0,0.0,89,0.00,,,0.01,WUHU216DAVISVP2,2013-07-13 02:12:00,
2013-07-12 22:17:00,74.0,70.5,29.98,NNW,344,0.0,0.0,89,0.00,,,0.01,WUHU216DAVISVP2,2013-07-13 02:17:00,
2013-07-12 22:23:00,73.9,70.4,29.98,NNW,344,0.0,0.0,89,0.00,,,0.01,WUHU216DAVISVP2,2013-07-13 02:23:00,
2013-07-12 22:28:00,73.9,70.4,29.98,NNW,344,0.0,0.0,89,0.00,,,0.01,WUHU216DAVISVP2,2013-07-13 02:28:00,
2013-07-12 22:33:00,73.9,70.5,29.98,NNW,344,0.0,0.0,89,0.00,,,0.01,WUHU216DAVISVP2,2013-07-13 02:33:00,